sensor_id;sensor_type;location;lat;lon;timestamp;temperature;humidity
59067;DHT22;44854;50.838;4.438;2024-01-11T05:44:13;-2.40;99.90
59067;DHT22;44854;50.838;4.438;2024-01-11T05:46:39;-2.40;99.90
59067;DHT22;44854;50.838;4.438;2024-01-11T05:49:05;-2.40;99.90
59067;DHT22;44854;50.838;4.438;2024-01-11T05:51:31;-2.40;99.90
59067;DHT22;44854;50.838;4.438;2024-01-11T05:53:57;-2.50;99.90
59067;DHT22;44854;50.838;4.438;2024-01-11T05:56:22;-2.50;99.90
59067;DHT22;44854;50.838;4.438;2024-01-11T05:58:48;-2.40;99.90
59067;DHT22;44854;50.838;4.438;2024-01-11T06:01:14;-2.60;99.90
59067;DHT22;44854;50.838;4.438;2024-01-11T06:04:06;-2.50;99.90
59067;DHT22;44854;50.838;4.438;2024-01-11T06:06:35;-2.40;99.90
59067;DHT22;44854;50.838;4.438;2024-01-11T06:12:20;-2.50;99.90
59067;DHT22;44854;50.838;4.438;2024-01-11T06:14:58;-2.60;99.90
59067;DHT22;44854;50.838;4.438;2024-01-11T06:17:24;-2.50;99.90
59067;DHT22;44854;50.838;4.438;2024-01-11T06:19:50;-2.40;99.90
59067;DHT22;44854;50.838;4.438;2024-01-11T06:22:16;-2.50;99.90
59067;DHT22;44854;50.838;4.438;2024-01-11T06:24:41;-2.50;99.90
59067;DHT22;44854;50.838;4.438;2024-01-11T06:27:07;-2.50;99.90
59067;DHT22;44854;50.838;4.438;2024-01-11T06:29:33;-2.50;99.90
59067;DHT22;44854;50.838;4.438;2024-01-11T06:31:58;-2.50;99.90
59067;DHT22;44854;50.838;4.438;2024-01-11T06:34:24;-2.40;99.90
59067;DHT22;44854;50.838;4.438;2024-01-11T06:36:50;-2.40;99.90
59067;DHT22;44854;50.838;4.438;2024-01-11T06:39:16;-2.40;99.90
59067;DHT22;44854;50.838;4.438;2024-01-11T06:41:42;-2.40;99.90
59067;DHT22;44854;50.838;4.438;2024-01-11T06:44:08;-2.40;99.90
59067;DHT22;44854;50.838;4.438;2024-01-11T06:46:34;-2.40;99.90
59067;DHT22;44854;50.838;4.438;2024-01-11T06:49:01;-2.40;99.90
59067;DHT22;44854;50.838;4.438;2024-01-11T06:51:27;-2.50;99.90
59067;DHT22;44854;50.838;4.438;2024-01-11T06:53:53;-2.40;99.90
59067;DHT22;44854;50.838;4.438;2024-01-11T06:56:20;-2.40;99.90
59067;DHT22;44854;50.838;4.438;2024-01-11T06:58:46;-2.50;99.90
59067;DHT22;44854;50.838;4.438;2024-01-11T07:01:12;-2.40;99.90
59067;DHT22;44854;50.838;4.438;2024-01-11T07:03:38;-2.40;99.90
59067;DHT22;44854;50.838;4.438;2024-01-11T07:06:04;-2.50;99.90
59067;DHT22;44854;50.838;4.438;2024-01-11T07:08:31;-2.50;99.90
59067;DHT22;44854;50.838;4.438;2024-01-11T07:10:59;-2.40;99.90
59067;DHT22;44854;50.838;4.438;2024-01-11T07:13:25;-2.40;99.90
59067;DHT22;44854;50.838;4.438;2024-01-11T07:15:50;-2.40;99.90
59067;DHT22;44854;50.838;4.438;2024-01-11T07:18:21;-2.50;99.90
59067;DHT22;44854;50.838;4.438;2024-01-11T07:20:47;-2.50;99.90
59067;DHT22;44854;50.838;4.438;2024-01-11T07:23:13;-2.50;99.90
59067;DHT22;44854;50.838;4.438;2024-01-11T07:25:39;-2.50;99.90
59067;DHT22;44854;50.838;4.438;2024-01-11T07:28:06;-2.50;99.90
59067;DHT22;44854;50.838;4.438;2024-01-11T07:30:32;-2.40;99.90
59067;DHT22;44854;50.838;4.438;2024-01-11T07:32:58;-2.50;99.90
59067;DHT22;44854;50.838;4.438;2024-01-11T07:35:23;-2.50;99.90
59067;DHT22;44854;50.838;4.438;2024-01-11T07:37:49;-2.50;99.90
59067;DHT22;44854;50.838;4.438;2024-01-11T07:40:15;-2.50;99.90
59067;DHT22;44854;50.838;4.438;2024-01-11T07:42:42;-2.50;99.90
59067;DHT22;44854;50.838;4.438;2024-01-11T07:45:08;-2.50;99.90
59067;DHT22;44854;50.838;4.438;2024-01-11T07:47:37;-2.60;99.90
59067;DHT22;44854;50.838;4.438;2024-01-11T07:50:05;-2.50;99.90
59067;DHT22;44854;50.838;4.438;2024-01-11T07:52:32;-2.40;99.90
59067;DHT22;44854;50.838;4.438;2024-01-11T07:54:58;-2.50;99.90
59067;DHT22;44854;50.838;4.438;2024-01-11T07:57:32;-2.60;99.90
59067;DHT22;44854;50.838;4.438;2024-01-11T07:59:58;-2.60;99.90
59067;DHT22;44854;50.838;4.438;2024-01-11T08:02:25;-2.60;99.90
59067;DHT22;44854;50.838;4.438;2024-01-11T08:04:51;-2.60;99.90
59067;DHT22;44854;50.838;4.438;2024-01-11T08:07:16;-2.50;99.90
59067;DHT22;44854;50.838;4.438;2024-01-11T08:09:42;-2.50;99.90
59067;DHT22;44854;50.838;4.438;2024-01-11T08:12:16;-2.50;99.90
59067;DHT22;44854;50.838;4.438;2024-01-11T08:14:41;-2.60;99.90
59067;DHT22;44854;50.838;4.438;2024-01-11T08:17:08;-2.60;99.90
59067;DHT22;44854;50.838;4.438;2024-01-11T08:19:34;-2.60;99.90
59067;DHT22;44854;50.838;4.438;2024-01-11T08:33:20;-2.50;99.90
59067;DHT22;44854;50.838;4.438;2024-01-11T08:35:46;-2.60;99.90
59067;DHT22;44854;50.838;4.438;2024-01-11T08:38:12;-2.60;99.90
59067;DHT22;44854;50.838;4.438;2024-01-11T08:40:46;-2.50;99.90
59067;DHT22;44854;50.838;4.438;2024-01-11T08:43:17;-2.60;99.90
59067;DHT22;44854;50.838;4.438;2024-01-11T08:45:43;-2.60;99.90
59067;DHT22;44854;50.838;4.438;2024-01-11T08:48:13;-2.60;99.90
59067;DHT22;44854;50.838;4.438;2024-01-11T08:50:51;-2.60;99.90
59067;DHT22;44854;50.838;4.438;2024-01-11T08:53:17;-2.60;99.90
59067;DHT22;44854;50.838;4.438;2024-01-11T08:55:46;-2.60;99.90
59067;DHT22;44854;50.838;4.438;2024-01-11T08:58:12;-2.60;99.90
59067;DHT22;44854;50.838;4.438;2024-01-11T09:00:38;-2.50;99.90
59067;DHT22;44854;50.838;4.438;2024-01-11T09:03:04;-2.50;99.90
59067;DHT22;44854;50.838;4.438;2024-01-11T09:05:29;-2.40;99.90
59067;DHT22;44854;50.838;4.438;2024-01-11T09:07:55;-2.40;99.90
59067;DHT22;44854;50.838;4.438;2024-01-11T09:10:21;-2.50;99.90
59067;DHT22;44854;50.838;4.438;2024-01-11T09:12:47;-2.40;99.90
59067;DHT22;44854;50.838;4.438;2024-01-11T09:15:13;-2.40;99.90
59067;DHT22;44854;50.838;4.438;2024-01-11T09:17:40;-2.40;99.90
59067;DHT22;44854;50.838;4.438;2024-01-11T09:20:06;-2.40;99.90
59067;DHT22;44854;50.838;4.438;2024-01-11T09:22:31;-2.30;99.90
59067;DHT22;44854;50.838;4.438;2024-01-11T09:24:58;-2.40;99.90
59067;DHT22;44854;50.838;4.438;2024-01-11T09:27:23;-2.20;99.90
59067;DHT22;44854;50.838;4.438;2024-01-11T09:29:49;-2.10;99.90
59067;DHT22;44854;50.838;4.438;2024-01-11T09:32:15;-2.10;99.90
59067;DHT22;44854;50.838;4.438;2024-01-11T09:34:41;-2.00;99.90
59067;DHT22;44854;50.838;4.438;2024-01-11T09:37:06;-2.00;99.90
59067;DHT22;44854;50.838;4.438;2024-01-11T09:39:32;-2.20;99.90
59067;DHT22;44854;50.838;4.438;2024-01-11T09:42:07;-2.20;99.90
59067;DHT22;44854;50.838;4.438;2024-01-11T09:44:36;-2.20;99.90
59067;DHT22;44854;50.838;4.438;2024-01-11T09:47:09;-2.20;99.90
59067;DHT22;44854;50.838;4.438;2024-01-11T09:49:36;-2.20;99.90
59067;DHT22;44854;50.838;4.438;2024-01-11T09:52:06;-2.00;99.90
59067;DHT22;44854;50.838;4.438;2024-01-11T09:54:35;-1.80;99.90
59067;DHT22;44854;50.838;4.438;2024-01-11T09:57:05;-1.80;99.90
59067;DHT22;44854;50.838;4.438;2024-01-11T09:59:38;-1.90;99.90
59067;DHT22;44854;50.838;4.438;2024-01-11T10:02:07;-1.90;99.90
59067;DHT22;44854;50.838;4.438;2024-01-11T10:04:35;-1.80;99.90
59067;DHT22;44854;50.838;4.438;2024-01-11T10:07:06;-1.70;99.90
59067;DHT22;44854;50.838;4.438;2024-01-11T10:09:32;-1.70;99.90
59067;DHT22;44854;50.838;4.438;2024-01-11T10:11:58;-1.70;99.90
59067;DHT22;44854;50.838;4.438;2024-01-11T10:14:24;-1.60;99.90
59067;DHT22;44854;50.838;4.438;2024-01-11T10:16:50;-1.60;99.90
59067;DHT22;44854;50.838;4.438;2024-01-11T10:19:24;-1.50;99.90
59067;DHT22;44854;50.838;4.438;2024-01-11T10:21:51;-1.60;99.90
59067;DHT22;44854;50.838;4.438;2024-01-11T10:24:20;-1.70;99.90
59067;DHT22;44854;50.838;4.438;2024-01-11T10:26:46;-1.70;99.90
59067;DHT22;44854;50.838;4.438;2024-01-11T10:29:12;-1.70;99.90
59067;DHT22;44854;50.838;4.438;2024-01-11T10:31:38;-1.60;99.90
59067;DHT22;44854;50.838;4.438;2024-01-11T10:34:04;-1.50;99.90
59067;DHT22;44854;50.838;4.438;2024-01-11T10:36:32;-1.40;99.90
59067;DHT22;44854;50.838;4.438;2024-01-11T10:39:01;-1.40;99.90
59067;DHT22;44854;50.838;4.438;2024-01-11T10:41:41;-1.30;99.90
59067;DHT22;44854;50.838;4.438;2024-01-11T10:44:19;-1.30;99.90
59067;DHT22;44854;50.838;4.438;2024-01-11T10:46:51;-1.30;99.90
59067;DHT22;44854;50.838;4.438;2024-01-11T10:49:21;-1.10;99.90
59067;DHT22;44854;50.838;4.438;2024-01-11T10:52:03;-0.90;99.90
59067;DHT22;44854;50.838;4.438;2024-01-11T10:54:31;-0.90;99.90
59067;DHT22;44854;50.838;4.438;2024-01-11T10:57:00;-0.90;99.90
59067;DHT22;44854;50.838;4.438;2024-01-11T10:59:27;-0.80;99.90
59067;DHT22;44854;50.838;4.438;2024-01-11T11:01:59;-0.80;99.90
59067;DHT22;44854;50.838;4.438;2024-01-11T11:04:29;-0.90;99.90
59067;DHT22;44854;50.838;4.438;2024-01-11T11:06:56;-0.60;99.90
59067;DHT22;44854;50.838;4.438;2024-01-11T11:09:30;-0.60;99.90
59067;DHT22;44854;50.838;4.438;2024-01-11T11:11:58;-0.60;99.90
59067;DHT22;44854;50.838;4.438;2024-01-11T11:14:24;-0.60;99.90
59067;DHT22;44854;50.838;4.438;2024-01-11T11:16:51;-0.50;99.90
59067;DHT22;44854;50.838;4.438;2024-01-11T11:19:24;-0.40;99.90
59067;DHT22;44854;50.838;4.438;2024-01-11T11:22:03;-0.70;99.90
59067;DHT22;44854;50.838;4.438;2024-01-11T11:24:30;-0.50;99.90
59067;DHT22;44854;50.838;4.438;2024-01-11T11:26:55;-0.30;99.90
59067;DHT22;44854;50.838;4.438;2024-01-11T11:29:22;-0.30;99.90
59067;DHT22;44854;50.838;4.438;2024-01-11T11:31:48;-0.30;99.90
59067;DHT22;44854;50.838;4.438;2024-01-11T11:34:40;-0.30;99.90
59067;DHT22;44854;50.838;4.438;2024-01-11T11:37:07;-0.20;99.90
59067;DHT22;44854;50.838;4.438;2024-01-11T11:39:33;-0.20;99.90
59067;DHT22;44854;50.838;4.438;2024-01-11T11:42:00;-0.10;99.90
59067;DHT22;44854;50.838;4.438;2024-01-11T11:44:26;0.10;99.90
59067;DHT22;44854;50.838;4.438;2024-01-11T11:46:52;0.20;99.90
59067;DHT22;44854;50.838;4.438;2024-01-11T11:49:19;0.10;99.90
59067;DHT22;44854;50.838;4.438;2024-01-11T11:51:44;0.20;99.90
59067;DHT22;44854;50.838;4.438;2024-01-11T11:54:10;0.30;99.90
59067;DHT22;44854;50.838;4.438;2024-01-11T11:56:37;0.30;99.90
59067;DHT22;44854;50.838;4.438;2024-01-11T11:59:03;0.30;99.90
59067;DHT22;44854;50.838;4.438;2024-01-11T12:01:31;0.30;99.90
59067;DHT22;44854;50.838;4.438;2024-01-11T12:03:57;0.40;99.90
59067;DHT22;44854;50.838;4.438;2024-01-11T12:06:28;0.50;99.90
59067;DHT22;44854;50.838;4.438;2024-01-11T12:08:54;0.50;99.90
59067;DHT22;44854;50.838;4.438;2024-01-11T12:11:21;0.40;99.90
59067;DHT22;44854;50.838;4.438;2024-01-11T12:13:49;0.40;99.90
59067;DHT22;44854;50.838;4.438;2024-01-11T12:16:14;0.40;99.90
59067;DHT22;44854;50.838;4.438;2024-01-11T12:18:41;0.40;99.90
59067;DHT22;44854;50.838;4.438;2024-01-11T12:21:08;0.60;99.90
59067;DHT22;44854;50.838;4.438;2024-01-11T12:23:34;0.70;99.90
59067;DHT22;44854;50.838;4.438;2024-01-11T12:26:03;0.90;99.90
59067;DHT22;44854;50.838;4.438;2024-01-11T12:28:31;1.00;99.90
59067;DHT22;44854;50.838;4.438;2024-01-11T12:30:58;1.10;99.90
59067;DHT22;44854;50.838;4.438;2024-01-11T12:33:26;1.10;99.90
59067;DHT22;44854;50.838;4.438;2024-01-11T12:35:53;1.20;99.90
59067;DHT22;44854;50.838;4.438;2024-01-11T12:38:19;1.00;99.90
59067;DHT22;44854;50.838;4.438;2024-01-11T12:40:46;0.90;99.90
59067;DHT22;44854;50.838;4.438;2024-01-11T12:43:12;1.00;99.90
59067;DHT22;44854;50.838;4.438;2024-01-11T12:45:40;1.00;99.90
59067;DHT22;44854;50.838;4.438;2024-01-11T12:48:08;1.10;99.90
59067;DHT22;44854;50.838;4.438;2024-01-11T12:50:34;1.20;99.90
59067;DHT22;44854;50.838;4.438;2024-01-11T12:53:10;1.30;99.90
59067;DHT22;44854;50.838;4.438;2024-01-11T12:55:44;1.30;99.90
59067;DHT22;44854;50.838;4.438;2024-01-11T12:58:10;1.30;99.90
59067;DHT22;44854;50.838;4.438;2024-01-11T13:00:37;1.40;99.90
59067;DHT22;44854;50.838;4.438;2024-01-11T13:03:06;1.40;99.90
59067;DHT22;44854;50.838;4.438;2024-01-11T13:05:34;1.30;99.90
59067;DHT22;44854;50.838;4.438;2024-01-11T13:08:01;1.40;99.90
59067;DHT22;44854;50.838;4.438;2024-01-11T13:10:28;1.40;99.90
59067;DHT22;44854;50.838;4.438;2024-01-11T13:12:54;1.30;99.90
59067;DHT22;44854;50.838;4.438;2024-01-11T13:15:27;1.30;99.90
59067;DHT22;44854;50.838;4.438;2024-01-11T13:17:57;1.40;99.90
59067;DHT22;44854;50.838;4.438;2024-01-11T13:20:23;1.30;99.90
59067;DHT22;44854;50.838;4.438;2024-01-11T13:23:14;1.30;99.90
59067;DHT22;44854;50.838;4.438;2024-01-11T13:25:44;1.30;99.90
59067;DHT22;44854;50.838;4.438;2024-01-11T13:28:10;1.50;99.90
59067;DHT22;44854;50.838;4.438;2024-01-11T13:30:43;1.50;99.90
59067;DHT22;44854;50.838;4.438;2024-01-11T13:33:11;1.50;99.90
59067;DHT22;44854;50.838;4.438;2024-01-11T13:35:40;1.60;99.90
59067;DHT22;44854;50.838;4.438;2024-01-11T13:38:08;1.70;99.90
59067;DHT22;44854;50.838;4.438;2024-01-11T13:40:34;1.70;99.90
59067;DHT22;44854;50.838;4.438;2024-01-11T13:43:00;1.70;99.90
59067;DHT22;44854;50.838;4.438;2024-01-11T13:45:26;1.50;99.90
59067;DHT22;44854;50.838;4.438;2024-01-11T13:47:54;1.50;99.90
59067;DHT22;44854;50.838;4.438;2024-01-11T13:50:20;1.60;99.90
59067;DHT22;44854;50.838;4.438;2024-01-11T13:52:46;1.70;99.90
59067;DHT22;44854;50.838;4.438;2024-01-11T13:55:12;1.70;99.90
59067;DHT22;44854;50.838;4.438;2024-01-11T13:57:39;1.80;99.90
59067;DHT22;44854;50.838;4.438;2024-01-11T14:00:05;1.80;99.90
59067;DHT22;44854;50.838;4.438;2024-01-11T14:02:32;1.80;99.90
59067;DHT22;44854;50.838;4.438;2024-01-11T14:04:58;1.90;99.90
59067;DHT22;44854;50.838;4.438;2024-01-11T14:07:24;1.90;99.90
59067;DHT22;44854;50.838;4.438;2024-01-11T14:09:51;1.70;99.90
59067;DHT22;44854;50.838;4.438;2024-01-11T14:12:17;1.80;99.90
59067;DHT22;44854;50.838;4.438;2024-01-11T14:14:43;1.90;99.90
59067;DHT22;44854;50.838;4.438;2024-01-11T14:17:09;1.90;99.90
59067;DHT22;44854;50.838;4.438;2024-01-11T14:19:35;2.10;99.90
59067;DHT22;44854;50.838;4.438;2024-01-11T14:22:01;2.00;99.90
59067;DHT22;44854;50.838;4.438;2024-01-11T14:24:27;2.00;99.90
59067;DHT22;44854;50.838;4.438;2024-01-11T14:26:53;2.20;99.90
59067;DHT22;44854;50.838;4.438;2024-01-11T14:29:19;2.20;99.90
59067;DHT22;44854;50.838;4.438;2024-01-11T14:31:45;2.10;99.90
59067;DHT22;44854;50.838;4.438;2024-01-11T14:34:12;2.00;99.90
59067;DHT22;44854;50.838;4.438;2024-01-11T14:36:38;2.10;99.90
59067;DHT22;44854;50.838;4.438;2024-01-11T14:39:04;2.20;99.90
59067;DHT22;44854;50.838;4.438;2024-01-11T14:41:30;2.20;99.90
59067;DHT22;44854;50.838;4.438;2024-01-11T14:43:59;2.20;99.90
59067;DHT22;44854;50.838;4.438;2024-01-11T14:46:29;2.20;99.90
59067;DHT22;44854;50.838;4.438;2024-01-11T14:48:55;2.20;99.90
59067;DHT22;44854;50.838;4.438;2024-01-11T14:51:20;2.20;99.90
59067;DHT22;44854;50.838;4.438;2024-01-11T14:53:46;2.20;99.90
59067;DHT22;44854;50.838;4.438;2024-01-11T14:56:12;2.20;99.90
59067;DHT22;44854;50.838;4.438;2024-01-11T14:58:38;2.30;99.90
59067;DHT22;44854;50.838;4.438;2024-01-11T15:01:04;2.40;99.90
59067;DHT22;44854;50.838;4.438;2024-01-11T15:03:30;2.40;99.90
59067;DHT22;44854;50.838;4.438;2024-01-11T15:05:58;2.50;99.90
59067;DHT22;44854;50.838;4.438;2024-01-11T15:08:25;2.40;99.90
59067;DHT22;44854;50.838;4.438;2024-01-11T15:10:51;2.20;99.90
59067;DHT22;44854;50.838;4.438;2024-01-11T15:13:17;2.20;99.90
59067;DHT22;44854;50.838;4.438;2024-01-11T15:15:42;2.20;99.90
59067;DHT22;44854;50.838;4.438;2024-01-11T15:18:08;2.10;99.90
59067;DHT22;44854;50.838;4.438;2024-01-11T15:20:34;2.10;99.90
59067;DHT22;44854;50.838;4.438;2024-01-11T15:23:00;2.00;99.90
59067;DHT22;44854;50.838;4.438;2024-01-11T15:25:25;2.00;99.90
59067;DHT22;44854;50.838;4.438;2024-01-11T15:27:53;2.00;99.90
59067;DHT22;44854;50.838;4.438;2024-01-11T15:30:20;2.10;99.90
59067;DHT22;44854;50.838;4.438;2024-01-11T15:32:45;2.10;99.90
59067;DHT22;44854;50.838;4.438;2024-01-11T15:35:11;2.00;99.90
59067;DHT22;44854;50.838;4.438;2024-01-11T15:37:39;2.10;99.90
59067;DHT22;44854;50.838;4.438;2024-01-11T15:40:06;2.10;99.90
59067;DHT22;44854;50.838;4.438;2024-01-11T15:42:34;2.10;99.90
59067;DHT22;44854;50.838;4.438;2024-01-11T15:45:05;2.10;99.90
59067;DHT22;44854;50.838;4.438;2024-01-11T15:47:37;2.20;99.90
59067;DHT22;44854;50.838;4.438;2024-01-11T15:50:10;2.00;99.90
59067;DHT22;44854;50.838;4.438;2024-01-11T15:52:42;2.00;99.90
59067;DHT22;44854;50.838;4.438;2024-01-11T15:55:17;2.00;99.90
59067;DHT22;44854;50.838;4.438;2024-01-11T15:57:46;2.00;99.90
59067;DHT22;44854;50.838;4.438;2024-01-11T16:00:30;2.00;99.90
59067;DHT22;44854;50.838;4.438;2024-01-11T16:02:59;2.10;99.90
59067;DHT22;44854;50.838;4.438;2024-01-11T16:05:25;2.10;99.90
59067;DHT22;44854;50.838;4.438;2024-01-11T16:07:54;2.00;99.90
59067;DHT22;44854;50.838;4.438;2024-01-11T16:10:23;2.00;99.90
59067;DHT22;44854;50.838;4.438;2024-01-11T16:12:52;2.00;99.90
59067;DHT22;44854;50.838;4.438;2024-01-11T16:15:26;1.90;99.90
59067;DHT22;44854;50.838;4.438;2024-01-11T16:17:56;1.90;99.90
59067;DHT22;44854;50.838;4.438;2024-01-11T16:20:21;2.10;99.90
59067;DHT22;44854;50.838;4.438;2024-01-11T16:22:47;2.10;99.90
59067;DHT22;44854;50.838;4.438;2024-01-11T16:25:13;2.00;99.90
59067;DHT22;44854;50.838;4.438;2024-01-11T16:27:39;1.90;99.90
59067;DHT22;44854;50.838;4.438;2024-01-11T16:30:11;1.80;99.90
59067;DHT22;44854;50.838;4.438;2024-01-11T16:32:37;1.80;99.90
59067;DHT22;44854;50.838;4.438;2024-01-11T16:35:04;1.80;99.90
59067;DHT22;44854;50.838;4.438;2024-01-11T16:37:30;1.80;99.90
59067;DHT22;44854;50.838;4.438;2024-01-11T16:39:56;1.80;99.90
59067;DHT22;44854;50.838;4.438;2024-01-11T16:42:22;1.80;99.90
59067;DHT22;44854;50.838;4.438;2024-01-11T16:44:49;1.70;99.90
59067;DHT22;44854;50.838;4.438;2024-01-11T16:47:15;1.80;99.90
59067;DHT22;44854;50.838;4.438;2024-01-11T16:49:42;2.00;99.90
59067;DHT22;44854;50.838;4.438;2024-01-11T16:52:09;2.10;99.90
59067;DHT22;44854;50.838;4.438;2024-01-11T16:54:35;2.10;99.90
59067;DHT22;44854;50.838;4.438;2024-01-11T16:57:01;2.10;99.90
59067;DHT22;44854;50.838;4.438;2024-01-11T16:59:26;2.20;99.90
59067;DHT22;44854;50.838;4.438;2024-01-11T17:01:52;2.20;99.90
59067;DHT22;44854;50.838;4.438;2024-01-11T17:04:21;2.10;99.90
59067;DHT22;44854;50.838;4.438;2024-01-11T17:06:47;2.10;99.90
59067;DHT22;44854;50.838;4.438;2024-01-11T17:09:12;2.00;99.90
59067;DHT22;44854;50.838;4.438;2024-01-11T17:11:39;2.00;99.90
59067;DHT22;44854;50.838;4.438;2024-01-11T17:14:06;2.10;99.90
59067;DHT22;44854;50.838;4.438;2024-01-11T17:16:32;2.20;99.90
59067;DHT22;44854;50.838;4.438;2024-01-11T17:18:58;2.30;99.90
59067;DHT22;44854;50.838;4.438;2024-01-11T17:21:24;2.40;99.90
59067;DHT22;44854;50.838;4.438;2024-01-11T17:23:51;2.30;99.90
59067;DHT22;44854;50.838;4.438;2024-01-11T17:26:16;2.30;99.90
59067;DHT22;44854;50.838;4.438;2024-01-11T17:28:43;2.30;99.90
59067;DHT22;44854;50.838;4.438;2024-01-11T17:31:09;2.30;99.90
59067;DHT22;44854;50.838;4.438;2024-01-11T17:33:35;2.40;99.90
59067;DHT22;44854;50.838;4.438;2024-01-11T17:36:00;2.40;99.90
59067;DHT22;44854;50.838;4.438;2024-01-11T17:38:26;2.30;99.90
59067;DHT22;44854;50.838;4.438;2024-01-11T17:40:52;2.30;99.90
59067;DHT22;44854;50.838;4.438;2024-01-11T17:43:18;2.40;99.90
59067;DHT22;44854;50.838;4.438;2024-01-11T17:45:45;2.60;99.90
59067;DHT22;44854;50.838;4.438;2024-01-11T17:48:14;2.60;99.90
59067;DHT22;44854;50.838;4.438;2024-01-11T17:50:43;2.50;99.90
59067;DHT22;44854;50.838;4.438;2024-01-11T17:53:09;2.60;99.90
59067;DHT22;44854;50.838;4.438;2024-01-11T17:55:34;2.70;99.90
59067;DHT22;44854;50.838;4.438;2024-01-11T17:58:00;2.70;99.90
59067;DHT22;44854;50.838;4.438;2024-01-11T18:00:26;2.70;99.90
59067;DHT22;44854;50.838;4.438;2024-01-11T18:02:55;2.70;99.90
59067;DHT22;44854;50.838;4.438;2024-01-11T18:05:21;2.60;99.90
59067;DHT22;44854;50.838;4.438;2024-01-11T18:07:47;2.50;99.90
59067;DHT22;44854;50.838;4.438;2024-01-11T18:10:12;2.60;99.90
59067;DHT22;44854;50.838;4.438;2024-01-11T18:12:40;2.60;99.90
59067;DHT22;44854;50.838;4.438;2024-01-11T18:15:07;2.70;99.90
59067;DHT22;44854;50.838;4.438;2024-01-11T18:17:33;2.80;99.90
59067;DHT22;44854;50.838;4.438;2024-01-11T18:20:04;2.70;99.90
59067;DHT22;44854;50.838;4.438;2024-01-11T18:22:32;2.70;99.90
59067;DHT22;44854;50.838;4.438;2024-01-11T18:24:57;2.70;99.90
59067;DHT22;44854;50.838;4.438;2024-01-11T18:27:23;2.80;99.90
59067;DHT22;44854;50.838;4.438;2024-01-11T18:29:49;2.80;99.90
59067;DHT22;44854;50.838;4.438;2024-01-11T18:32:15;2.90;99.90
59067;DHT22;44854;50.838;4.438;2024-01-11T18:34:40;3.00;99.90
59067;DHT22;44854;50.838;4.438;2024-01-11T18:37:06;3.00;99.90
59067;DHT22;44854;50.838;4.438;2024-01-11T18:39:32;3.00;99.90
59067;DHT22;44854;50.838;4.438;2024-01-11T18:41:58;3.10;99.90
59067;DHT22;44854;50.838;4.438;2024-01-11T18:44:26;3.10;99.90
59067;DHT22;44854;50.838;4.438;2024-01-11T18:46:51;3.00;99.90
59067;DHT22;44854;50.838;4.438;2024-01-11T18:49:18;3.10;99.90
59067;DHT22;44854;50.838;4.438;2024-01-11T18:51:45;3.20;99.90
59067;DHT22;44854;50.838;4.438;2024-01-11T18:54:11;3.00;99.90
59067;DHT22;44854;50.838;4.438;2024-01-11T18:56:37;3.10;99.90
59067;DHT22;44854;50.838;4.438;2024-01-11T18:59:04;3.10;99.90
59067;DHT22;44854;50.838;4.438;2024-01-11T19:01:30;3.20;99.90
59067;DHT22;44854;50.838;4.438;2024-01-11T19:03:56;3.20;99.90
59067;DHT22;44854;50.838;4.438;2024-01-11T19:06:23;3.10;99.90
59067;DHT22;44854;50.838;4.438;2024-01-11T19:08:49;3.00;99.90
59067;DHT22;44854;50.838;4.438;2024-01-11T19:11:14;3.00;99.90
59067;DHT22;44854;50.838;4.438;2024-01-11T19:13:40;3.20;99.90
59067;DHT22;44854;50.838;4.438;2024-01-11T19:16:06;3.30;99.90
59067;DHT22;44854;50.838;4.438;2024-01-11T19:18:32;3.30;99.90
59067;DHT22;44854;50.838;4.438;2024-01-11T19:20:58;3.20;99.90
59067;DHT22;44854;50.838;4.438;2024-01-11T19:23:23;3.20;99.90
59067;DHT22;44854;50.838;4.438;2024-01-11T19:25:56;3.30;99.90
59067;DHT22;44854;50.838;4.438;2024-01-11T19:28:25;3.30;99.90
59067;DHT22;44854;50.838;4.438;2024-01-11T19:30:52;3.30;99.90
59067;DHT22;44854;50.838;4.438;2024-01-11T19:33:18;3.40;99.90
59067;DHT22;44854;50.838;4.438;2024-01-11T19:35:46;3.30;99.90
59067;DHT22;44854;50.838;4.438;2024-01-11T19:38:13;3.30;99.90
59067;DHT22;44854;50.838;4.438;2024-01-11T19:40:40;3.20;99.90
59067;DHT22;44854;50.838;4.438;2024-01-11T19:43:06;3.30;99.90
59067;DHT22;44854;50.838;4.438;2024-01-11T19:45:32;3.20;99.90
59067;DHT22;44854;50.838;4.438;2024-01-11T19:47:57;3.10;99.90
59067;DHT22;44854;50.838;4.438;2024-01-11T19:50:24;3.20;99.90
59067;DHT22;44854;50.838;4.438;2024-01-11T19:52:50;3.20;99.90
59067;DHT22;44854;50.838;4.438;2024-01-11T19:55:16;3.20;99.90
59067;DHT22;44854;50.838;4.438;2024-01-11T19:57:42;3.30;99.90
59067;DHT22;44854;50.838;4.438;2024-01-11T20:00:09;3.20;99.90
59067;DHT22;44854;50.838;4.438;2024-01-11T20:02:35;3.30;99.90
59067;DHT22;44854;50.838;4.438;2024-01-11T20:05:03;3.30;99.90
59067;DHT22;44854;50.838;4.438;2024-01-11T20:07:30;3.40;99.90
59067;DHT22;44854;50.838;4.438;2024-01-11T20:09:56;3.40;99.90
59067;DHT22;44854;50.838;4.438;2024-01-11T20:12:23;3.40;99.90
59067;DHT22;44854;50.838;4.438;2024-01-11T20:14:48;3.50;99.90
59067;DHT22;44854;50.838;4.438;2024-01-11T20:17:15;3.40;99.90
59067;DHT22;44854;50.838;4.438;2024-01-11T20:19:42;3.30;99.90
59067;DHT22;44854;50.838;4.438;2024-01-11T20:22:33;3.30;99.90
59067;DHT22;44854;50.838;4.438;2024-01-11T20:25:00;3.20;99.90
59067;DHT22;44854;50.838;4.438;2024-01-11T20:27:25;3.20;99.90
59067;DHT22;44854;50.838;4.438;2024-01-11T20:29:51;3.20;99.90
59067;DHT22;44854;50.838;4.438;2024-01-11T20:32:16;3.20;99.90
59067;DHT22;44854;50.838;4.438;2024-01-11T20:34:42;3.20;99.90
59067;DHT22;44854;50.838;4.438;2024-01-11T20:37:08;3.30;99.90
59067;DHT22;44854;50.838;4.438;2024-01-11T20:39:33;3.30;99.90
59067;DHT22;44854;50.838;4.438;2024-01-11T20:41:59;3.40;99.90
59067;DHT22;44854;50.838;4.438;2024-01-11T20:44:25;3.30;99.90
59067;DHT22;44854;50.838;4.438;2024-01-11T20:46:50;3.40;99.90
59067;DHT22;44854;50.838;4.438;2024-01-11T20:49:16;3.30;99.90
59067;DHT22;44854;50.838;4.438;2024-01-11T20:51:42;3.10;99.90
59067;DHT22;44854;50.838;4.438;2024-01-11T20:54:08;3.00;99.90
59067;DHT22;44854;50.838;4.438;2024-01-11T20:56:40;3.00;99.90
59067;DHT22;44854;50.838;4.438;2024-01-11T20:59:06;3.00;99.90
59067;DHT22;44854;50.838;4.438;2024-01-11T21:01:32;3.00;99.90
59067;DHT22;44854;50.838;4.438;2024-01-11T21:03:57;3.00;99.90
59067;DHT22;44854;50.838;4.438;2024-01-11T21:06:23;3.30;99.90
59067;DHT22;44854;50.838;4.438;2024-01-11T21:08:49;3.30;99.90
59067;DHT22;44854;50.838;4.438;2024-01-11T21:11:14;3.20;99.90
59067;DHT22;44854;50.838;4.438;2024-01-11T21:13:46;3.20;99.90
59067;DHT22;44854;50.838;4.438;2024-01-11T21:16:12;3.20;99.90
59067;DHT22;44854;50.838;4.438;2024-01-11T21:18:37;3.40;99.90
59067;DHT22;44854;50.838;4.438;2024-01-11T21:21:03;3.30;99.90
59067;DHT22;44854;50.838;4.438;2024-01-11T21:23:29;3.30;99.90
59067;DHT22;44854;50.838;4.438;2024-01-11T21:25:55;3.30;99.90
59067;DHT22;44854;50.838;4.438;2024-01-11T21:28:21;3.40;99.90
59067;DHT22;44854;50.838;4.438;2024-01-11T21:30:47;3.40;99.90
59067;DHT22;44854;50.838;4.438;2024-01-11T21:33:15;3.30;99.90
59067;DHT22;44854;50.838;4.438;2024-01-11T21:35:41;3.40;99.90
59067;DHT22;44854;50.838;4.438;2024-01-11T21:38:08;3.30;99.90